createdAt,value
2023-04-30T00:01:35.488Z,9.30
2023-04-30T00:06:37.748Z,9.20
2023-04-30T00:11:41.393Z,9.10
2023-04-30T00:16:43.524Z,9.00
2023-04-30T00:21:45.645Z,9.00
2023-04-30T00:26:49.193Z,8.90
2023-04-30T00:31:51.530Z,8.80
2023-04-30T00:36:53.782Z,8.80
2023-04-30T00:41:57.458Z,8.70
2023-04-30T00:46:59.653Z,8.60
2023-04-30T00:52:01.742Z,8.60
2023-04-30T00:57:07.638Z,8.50
2023-04-30T01:02:10.385Z,8.50
2023-04-30T01:07:12.560Z,8.50
2023-04-30T01:12:21.651Z,8.40
2023-04-30T01:17:32.346Z,8.40
2023-04-30T01:22:41.792Z,8.30
2023-04-30T01:28:04.886Z,8.20
2023-04-30T01:33:07.065Z,8.20
2023-04-30T01:38:17.661Z,8.10
2023-04-30T01:43:31.375Z,8.10
2023-04-30T01:48:43.127Z,8.00
2023-04-30T01:53:46.443Z,8.00
2023-04-30T01:58:51.380Z,7.90
2023-04-30T02:03:53.764Z,7.90
2023-04-30T02:08:57.240Z,7.80
2023-04-30T02:14:00.927Z,7.70
2023-04-30T02:19:03.135Z,7.70
2023-04-30T02:24:05.802Z,7.60
2023-04-30T02:29:09.371Z,7.60
2023-04-30T02:34:11.574Z,7.50
2023-04-30T02:39:13.738Z,7.50
2023-04-30T02:44:17.468Z,7.40
2023-04-30T02:49:19.516Z,7.40
2023-04-30T02:54:21.823Z,7.40
2023-04-30T02:59:25.433Z,7.20
2023-04-30T03:04:27.687Z,7.20
2023-04-30T03:09:31.027Z,7.20
2023-04-30T03:14:34.489Z,7.20
2023-04-30T03:19:36.612Z,7.10
2023-04-30T03:24:38.680Z,7.10
2023-04-30T03:29:42.352Z,7.00
2023-04-30T03:34:44.517Z,7.00
2023-04-30T03:39:46.647Z,6.90
2023-04-30T03:44:50.279Z,6.90
2023-04-30T03:49:52.550Z,6.80
2023-04-30T03:54:54.885Z,6.80
2023-04-30T03:59:58.505Z,6.70
2023-04-30T04:05:00.885Z,6.70
2023-04-30T04:10:03.387Z,6.70
2023-04-30T04:15:08.769Z,6.70
2023-04-30T04:20:13.892Z,6.70
2023-04-30T04:25:16.343Z,6.70
2023-04-30T04:30:20.043Z,6.70
2023-04-30T04:35:22.121Z,6.80
2023-04-30T04:40:24.203Z,7.00
2023-04-30T04:45:27.823Z,7.20
2023-04-30T04:50:30.033Z,7.50
2023-04-30T04:55:32.258Z,8.00
2023-04-30T05:00:35.866Z,8.50
2023-04-30T05:05:37.986Z,9.00
2023-04-30T05:10:40.190Z,9.60
2023-04-30T05:15:43.841Z,10.40
2023-04-30T05:20:46.099Z,11.20
2023-04-30T05:25:52.045Z,11.90
2023-04-30T05:30:55.676Z,12.60
2023-04-30T05:35:57.761Z,13.30
2023-04-30T05:41:00.970Z,14.10
2023-04-30T05:46:04.637Z,14.90
2023-04-30T05:51:06.787Z,15.60
2023-04-30T05:56:09.084Z,16.20
2023-04-30T06:01:12.584Z,16.70
2023-04-30T06:06:14.736Z,17.40
2023-04-30T06:11:17.003Z,18.20
2023-04-30T06:16:20.635Z,19.00
2023-04-30T06:21:22.895Z,19.20
2023-04-30T06:26:25.062Z,18.90
2023-04-30T06:31:28.720Z,18.30
2023-04-30T06:36:30.873Z,17.60
2023-04-30T06:41:34.334Z,16.80
2023-04-30T06:46:37.945Z,15.90
2023-04-30T06:51:41.924Z,15.20
2023-04-30T06:56:44.040Z,14.60
2023-04-30T07:01:47.932Z,14.20
2023-04-30T07:06:50.046Z,13.90
2023-04-30T07:11:52.373Z,14.00
2023-04-30T07:16:55.914Z,14.10
2023-04-30T07:21:58.295Z,14.00
2023-04-30T07:27:01.152Z,14.10
2023-04-30T07:32:05.184Z,14.20
2023-04-30T07:37:07.351Z,14.50
2023-04-30T07:42:09.772Z,15.20
2023-04-30T07:47:13.443Z,16.10
2023-04-30T07:52:15.543Z,16.70
2023-04-30T07:57:17.764Z,17.00
2023-04-30T08:02:21.693Z,17.40
2023-04-30T08:07:23.897Z,17.80
2023-04-30T08:12:26.049Z,18.60
2023-04-30T08:17:30.297Z,19.80
2023-04-30T08:22:32.754Z,20.90
2023-04-30T08:27:34.894Z,21.50
2023-04-30T08:32:38.560Z,21.90
2023-04-30T08:37:40.777Z,22.40
2023-04-30T08:42:50.396Z,22.50
2023-04-30T08:47:54.517Z,22.20
2023-04-30T08:52:58.777Z,21.80
2023-04-30T08:58:00.908Z,21.60
2023-04-30T09:03:05.565Z,21.60
2023-04-30T09:08:08.198Z,21.40
2023-04-30T09:13:10.789Z,21.40
2023-04-30T09:18:15.795Z,21.70
2023-04-30T09:23:18.124Z,22.10
2023-04-30T09:28:20.710Z,22.80
2023-04-30T09:33:24.456Z,23.50
2023-04-30T09:38:28.395Z,24.30
2023-04-30T09:43:31.479Z,25.10
2023-04-30T09:48:35.115Z,25.80
2023-04-30T09:53:38.823Z,25.80
2023-04-30T09:58:47.608Z,25.10
2023-04-30T10:03:51.221Z,24.40
2023-04-30T10:08:56.591Z,24.00
2023-04-30T10:14:02.963Z,23.70
2023-04-30T10:19:12.563Z,23.60
2023-04-30T10:24:16.438Z,23.70
2023-04-30T10:29:19.069Z,24.40
2023-04-30T10:34:34.621Z,25.00
2023-04-30T10:39:38.785Z,25.10
2023-04-30T10:44:41.107Z,24.90
2023-04-30T10:49:49.391Z,24.90
2023-04-30T10:54:51.533Z,24.70
2023-04-30T11:00:14.447Z,24.70
2023-04-30T11:05:19.457Z,25.00
2023-04-30T11:10:23.829Z,25.30
2023-04-30T11:15:27.350Z,25.40
2023-04-30T11:20:32.805Z,25.70
2023-04-30T11:25:40.596Z,25.90
2023-04-30T11:30:52.133Z,26.10
2023-04-30T11:35:56.997Z,25.90
2023-04-30T11:40:59.675Z,25.50
2023-04-30T11:46:10.318Z,25.00
2023-04-30T11:51:17.498Z,24.30
2023-04-30T11:56:20.098Z,23.90
2023-04-30T12:01:26.085Z,24.10
2023-04-30T12:06:29.873Z,24.50
2023-04-30T12:11:32.375Z,25.00
2023-04-30T12:16:45.265Z,25.40
2023-04-30T12:21:50.111Z,25.30
2023-04-30T12:26:53.868Z,25.00
2023-04-30T12:31:56.101Z,24.40
2023-04-30T12:36:59.966Z,23.70
2023-04-30T12:42:03.127Z,23.10
2023-04-30T12:47:08.060Z,23.00
2023-04-30T12:52:13.422Z,22.90
2023-04-30T12:57:15.781Z,22.60
2023-04-30T13:02:18.432Z,21.70
2023-04-30T13:07:22.187Z,20.90
2023-04-30T13:12:24.394Z,20.30
2023-04-30T13:17:27.071Z,20.00
2023-04-30T13:22:30.767Z,20.00
2023-04-30T13:27:32.997Z,19.90
2023-04-30T13:32:35.154Z,19.70
2023-04-30T13:37:38.978Z,19.50
2023-04-30T13:42:42.781Z,19.40
2023-04-30T13:47:44.947Z,19.30
2023-04-30T13:52:48.800Z,19.50
2023-04-30T13:57:50.908Z,19.90
2023-04-30T14:02:53.175Z,20.40
2023-04-30T14:07:56.868Z,20.90
2023-04-30T14:12:59.174Z,21.10
2023-04-30T14:18:01.483Z,20.80
2023-04-30T14:23:05.072Z,20.50
2023-04-30T14:28:07.296Z,20.60
2023-04-30T14:33:09.602Z,20.90
2023-04-30T14:38:13.298Z,21.30
2023-04-30T14:43:15.440Z,21.70
2023-04-30T14:48:17.663Z,21.90
2023-04-30T14:53:21.427Z,21.80
2023-04-30T14:58:23.620Z,21.40
2023-04-30T15:03:25.917Z,20.90
2023-04-30T15:08:30.082Z,20.70
2023-04-30T15:13:32.438Z,20.70
2023-04-30T15:18:34.774Z,20.80
2023-04-30T15:23:38.430Z,20.60
2023-04-30T15:28:40.808Z,20.20
2023-04-30T15:33:42.982Z,20.00
2023-04-30T15:38:46.516Z,19.80
2023-04-30T15:43:48.770Z,19.50
2023-04-30T15:48:51.051Z,19.40
2023-04-30T15:53:54.554Z,19.50
2023-04-30T15:58:57.261Z,19.60
2023-04-30T16:03:59.465Z,19.60
2023-04-30T16:09:03.291Z,19.40
2023-04-30T16:14:05.658Z,19.00
2023-04-30T16:19:07.809Z,18.60
2023-04-30T16:24:12.546Z,18.20
2023-04-30T16:29:15.225Z,17.90
2023-04-30T16:34:17.307Z,17.70
2023-04-30T16:39:20.875Z,17.60
2023-04-30T16:44:22.993Z,17.50
2023-04-30T16:49:25.244Z,17.50
2023-04-30T16:54:28.907Z,17.30
2023-04-30T16:59:31.118Z,17.00
2023-04-30T17:04:33.400Z,17.00
2023-04-30T17:09:37.086Z,16.90
2023-04-30T17:14:39.271Z,16.80
2023-04-30T17:19:41.496Z,16.70
2023-04-30T17:24:45.107Z,16.60
2023-04-30T17:29:47.308Z,16.50
2023-04-30T17:34:49.444Z,16.40
2023-04-30T17:39:53.265Z,16.30
2023-04-30T17:44:55.681Z,16.20
2023-04-30T17:49:58.259Z,16.00
2023-04-30T17:55:02.130Z,15.90
2023-04-30T18:00:06.250Z,15.70
2023-04-30T18:05:08.985Z,15.50
2023-04-30T18:10:15.844Z,15.30
2023-04-30T18:15:18.062Z,15.20
2023-04-30T18:20:21.398Z,15.10
2023-04-30T18:25:25.964Z,14.90
2023-04-30T18:30:28.168Z,14.70
2023-04-30T18:35:30.388Z,14.50
2023-04-30T18:40:33.945Z,14.40
2023-04-30T18:45:36.340Z,14.20
2023-04-30T18:50:38.800Z,14.10
2023-04-30T18:55:44.056Z,14.00
2023-04-30T19:00:46.526Z,13.80
2023-04-30T19:05:53.222Z,13.70
2023-04-30T19:10:56.932Z,13.70
2023-04-30T19:15:59.098Z,13.50
2023-04-30T19:21:01.959Z,13.40
2023-04-30T19:26:06.012Z,13.30
2023-04-30T19:31:08.369Z,13.30
2023-04-30T19:36:24.800Z,13.20
2023-04-30T19:41:28.555Z,13.10
2023-04-30T19:46:31.425Z,13.10
2023-04-30T19:51:36.365Z,13.00
2023-04-30T19:56:40.129Z,12.80
2023-04-30T20:01:42.383Z,12.60
2023-04-30T20:06:44.971Z,12.40
2023-04-30T20:11:49.608Z,12.20
2023-04-30T20:16:51.854Z,11.90
2023-04-30T20:21:53.982Z,11.70
2023-04-30T20:26:57.549Z,11.50
2023-04-30T20:31:59.840Z,11.30
2023-04-30T20:37:02.489Z,11.10
2023-04-30T20:42:06.196Z,10.90
2023-04-30T20:47:08.480Z,10.80
2023-04-30T20:52:10.950Z,10.70
2023-04-30T20:57:14.540Z,10.60
2023-04-30T21:02:16.809Z,10.50
2023-04-30T21:07:18.984Z,10.50
2023-04-30T21:12:22.508Z,10.40
2023-04-30T21:17:24.695Z,10.40
2023-04-30T21:22:33.599Z,10.40
2023-04-30T21:27:37.275Z,10.30
2023-04-30T21:32:39.528Z,10.30
2023-04-30T21:37:42.224Z,10.40
2023-04-30T21:42:45.863Z,10.40
2023-04-30T21:47:48.342Z,10.40
2023-04-30T21:52:50.765Z,10.40
2023-04-30T21:57:54.421Z,10.30
2023-04-30T22:02:56.540Z,10.30
2023-04-30T22:07:58.644Z,10.30
2023-04-30T22:13:02.180Z,10.30
2023-04-30T22:18:04.417Z,10.30
2023-04-30T22:23:06.708Z,10.30
2023-04-30T22:28:10.634Z,10.30
2023-04-30T22:33:12.793Z,10.20
2023-04-30T22:38:14.974Z,10.10
2023-04-30T22:43:18.812Z,10.00
2023-04-30T22:48:20.990Z,9.90
2023-04-30T22:53:23.244Z,9.80
2023-04-30T22:58:26.934Z,9.80
2023-04-30T23:03:29.146Z,9.70
2023-04-30T23:08:31.212Z,9.70
2023-04-30T23:13:34.799Z,9.70
2023-04-30T23:18:37.157Z,9.70
2023-04-30T23:23:39.262Z,9.70
2023-04-30T23:28:42.894Z,9.60
2023-04-30T23:33:45.010Z,9.70
2023-04-30T23:38:47.230Z,9.70
2023-04-30T23:43:50.788Z,9.70
2023-04-30T23:48:52.981Z,9.70
2023-04-30T23:53:55.064Z,9.60
2023-04-30T23:58:58.722Z,9.60
